Time;durP1;ratioP1;P1;durP2;ratioP2;P2;SDS_P1;SDS_P2;PMS_P1;PMS_P2;Temp;Humidity;BMP_temperature;BMP_pressure;BME280_temperature;BME280_humidity;BME280_pressure;Samples;Min_cycle;Max_cycle;Signal;HPM_P1;HPM_P2
2023/03/22 00:01:27;;;;;;;5.07;4.67;;;8.70;99.90;;;;;;5106191;28;20543;-76
2023/03/22 00:03:54;;;;;;;5.10;4.73;;;8.70;99.90;;;;;;5108608;28;20496;-75
2023/03/22 00:06:23;;;;;;;8.60;5.43;;;8.70;99.90;;;;;;5108537;28;20451;-74
2023/03/22 00:08:52;;;;;;;12.50;5.23;;;8.60;99.90;;;;;;5102634;28;20524;-76
2023/03/22 00:11:19;;;;;;;7.17;6.53;;;8.50;99.90;;;;;;5105685;28;20462;-75
2023/03/22 00:13:47;;;;;;;5.70;5.20;;;8.50;99.90;;;;;;5106743;28;20846;-76
2023/03/22 00:16:14;;;;;;;6.10;5.50;;;8.50;99.90;;;;;;5099839;27;20543;-75
2023/03/22 00:18:41;;;;;;;6.90;5.83;;;8.50;99.90;;;;;;5107306;28;20457;-75
2023/03/22 00:21:12;;;;;;;8.47;4.83;;;8.50;99.90;;;;;;5097490;28;20842;-76
2023/03/22 00:23:41;;;;;;;5.97;5.57;;;8.50;99.90;;;;;;5106033;28;20533;-77
2023/03/22 00:26:08;;;;;;;5.73;4.70;;;8.50;99.90;;;;;;5107101;28;20524;-76
2023/03/22 00:28:35;;;;;;;5.27;4.67;;;8.60;99.90;;;;;;5105564;28;20482;-76
2023/03/22 00:31:03;;;;;;;6.57;4.40;;;8.60;99.90;;;;;;5096496;28;20440;-76
2023/03/22 00:33:31;;;;;;;4.00;3.60;;;8.70;99.90;;;;;;5105572;28;20482;-76
2023/03/22 00:36:00;;;;;;;4.30;3.90;;;8.80;99.90;;;;;;5102883;28;20512;-75
2023/03/22 00:38:35;;;;;;;7.73;5.77;;;8.80;99.90;;;;;;5107401;28;20499;-75
2023/03/22 00:41:12;;;;;;;6.70;4.57;;;8.80;99.90;;;;;;5097961;28;20442;-75
2023/03/22 00:43:40;;;;;;;4.03;3.73;;;8.80;99.90;;;;;;5107344;28;20526;-75
2023/03/22 00:46:07;;;;;;;4.40;3.33;;;8.80;99.90;;;;;;5105258;28;20512;-75
2023/03/22 00:48:35;;;;;;;4.57;4.10;;;8.70;99.90;;;;;;5103959;28;20560;-75
2023/03/22 00:51:02;;;;;;;3.27;2.97;;;8.80;99.90;;;;;;5099001;28;21212;-75
2023/03/22 00:53:29;;;;;;;4.40;4.00;;;8.70;99.90;;;;;;5099446;28;20879;-75
2023/03/22 00:55:56;;;;;;;5.43;3.67;;;8.70;99.90;;;;;;5099335;28;20459;-75
2023/03/22 00:58:25;;;;;;;4.33;3.93;;;8.70;99.90;;;;;;5106931;28;20565;-75
2023/03/22 01:00:52;;;;;;;3.87;3.53;;;8.70;99.90;;;;;;5101432;28;20461;-75
2023/03/22 01:03:20;;;;;;;3.80;3.50;;;8.70;99.90;;;;;;5107263;28;20516;-75
2023/03/22 01:05:49;;;;;;;3.73;3.37;;;8.70;99.90;;;;;;5099282;28;20446;-75
2023/03/22 01:08:16;;;;;;;5.43;4.87;;;8.70;99.90;;;;;;5101802;28;20458;-76
2023/03/22 01:10:44;;;;;;;5.53;4.63;;;8.80;99.90;;;;;;5103212;28;20482;-77
2023/03/22 01:13:12;;;;;;;4.93;4.40;;;8.80;99.90;;;;;;5100450;28;20455;-75
2023/03/22 01:15:41;;;;;;;5.10;4.20;;;8.80;99.90;;;;;;5096506;28;20546;-75
2023/03/22 01:18:08;;;;;;;4.47;4.07;;;8.80;99.90;;;;;;5100627;28;20474;-75
2023/03/22 01:20:35;;;;;;;3.93;3.57;;;8.80;99.90;;;;;;5101213;28;20504;-75
2023/03/22 01:23:02;;;;;;;4.73;4.33;;;8.90;99.90;;;;;;5100554;28;20876;-75
2023/03/22 01:25:29;;;;;;;4.27;3.90;;;8.90;99.90;;;;;;5102812;28;20469;-75
2023/03/22 01:27:56;;;;;;;4.03;3.50;;;8.90;99.90;;;;;;5106596;28;20442;-75
2023/03/22 01:30:23;;;;;;;4.70;3.30;;;8.90;99.90;;;;;;5106401;28;20539;-76
2023/03/22 01:32:52;;;;;;;4.30;2.77;;;8.80;99.90;;;;;;5102197;28;20972;-76
2023/03/22 01:35:19;;;;;;;3.60;3.30;;;8.80;99.90;;;;;;5106989;28;20507;-76
2023/03/22 01:37:46;;;;;;;5.17;3.37;;;8.80;99.90;;;;;;5105231;28;20454;-76
2023/03/22 01:40:15;;;;;;;6.23;3.93;;;8.80;99.90;;;;;;5106632;28;20543;-75
2023/03/22 01:42:42;;;;;;;4.43;3.20;;;8.80;99.90;;;;;;5099181;28;20496;-75
2023/03/22 01:45:41;;;;;;;3.77;3.47;;;8.90;99.90;;;;;;5103356;28;20474;-75
2023/03/22 01:48:28;;;;;;;4.73;4.10;;;8.90;99.90;;;;;;5102479;28;20454;-76
2023/03/22 01:51:05;;;;;;;3.57;3.20;;;8.90;99.90;;;;;;5110428;28;20523;-75
2023/03/22 01:53:38;;;;;;;4.10;3.80;;;8.90;99.90;;;;;;5108929;28;20535;-76
2023/03/22 01:56:06;;;;;;;4.97;4.57;;;8.90;99.90;;;;;;5107918;28;20858;-75
2023/03/22 01:58:35;;;;;;;6.70;6.03;;;8.90;99.90;;;;;;5098475;28;20938;-75
2023/03/22 02:01:04;;;;;;;6.50;6.00;;;8.90;99.90;;;;;;5108234;28;20503;-75
2023/03/22 02:03:38;;;;;;;8.90;5.53;;;8.80;99.90;;;;;;5105407;28;20450;-75
2023/03/22 02:06:05;;;;;;;6.23;5.63;;;8.70;99.90;;;;;;5103515;28;20466;-75
2023/03/22 02:08:32;;;;;;;7.63;5.70;;;8.60;99.90;;;;;;5104357;28;21194;-75
2023/03/22 02:11:01;;;;;;;5.63;5.20;;;8.60;99.90;;;;;;5105854;28;20473;-75
2023/03/22 02:13:47;;;;;;;6.87;5.07;;;8.60;99.90;;;;;;5097758;28;20463;-75
2023/03/22 02:16:27;;;;;;;5.03;4.57;;;8.50;99.90;;;;;;5103617;28;21033;-75
2023/03/22 02:19:22;;;;;;;4.63;4.03;;;8.40;99.90;;;;;;5104869;28;20470;-75
2023/03/22 02:22:37;;;;;;;5.70;4.50;;;8.40;99.90;;;;;;5106816;28;20499;-76
2023/03/22 02:25:37;;;;;;;4.93;4.53;;;8.40;99.90;;;;;;5102460;28;21123;-76
2023/03/22 02:28:22;;;;;;;5.67;5.17;;;8.40;99.90;;;;;;5098265;28;20488;-75
2023/03/22 02:31:34;;;;;;;4.43;4.10;;;8.40;99.90;;;;;;5104108;28;20584;-76
2023/03/22 02:34:46;;;;;;;5.70;4.80;;;8.30;99.90;;;;;;5048152;28;20950;-76
2023/03/22 02:37:51;;;;;;;4.30;4.00;;;8.40;99.90;;;;;;5076781;28;20478;-75
2023/03/22 02:40:30;;;;;;;8.43;4.00;;;8.40;99.90;;;;;;5102448;28;20446;-75
2023/03/22 02:43:01;;;;;;;4.47;4.10;;;8.40;99.90;;;;;;5105541;28;20506;-76
2023/03/22 02:45:34;;;;;;;4.10;3.80;;;8.40;99.90;;;;;;5109301;28;20481;-75
2023/03/22 02:48:09;;;;;;;4.10;3.80;;;8.40;99.90;;;;;;5107317;28;20462;-75
2023/03/22 02:50:40;;;;;;;4.30;3.90;;;8.30;99.90;;;;;;5106283;28;20531;-76
2023/03/22 02:53:14;;;;;;;4.40;4.13;;;8.30;99.90;;;;;;5101976;28;20986;-75
2023/03/22 02:55:45;;;;;;;4.70;4.20;;;8.30;99.90;;;;;;5110250;28;20464;-75
2023/03/22 02:58:16;;;;;;;4.70;4.30;;;8.30;99.90;;;;;;5107780;28;20503;-75
2023/03/22 03:00:45;;;;;;;4.17;3.87;;;8.30;99.90;;;;;;5097606;28;20463;-77
2023/03/22 03:03:17;;;;;;;4.77;4.37;;;8.40;99.90;;;;;;5105278;28;20478;-75
2023/03/22 03:05:47;;;;;;;5.43;4.93;;;8.40;99.90;;;;;;5100371;28;20458;-75
2023/03/22 03:08:16;;;;;;;5.27;4.77;;;8.40;99.90;;;;;;5105426;28;20535;-76
2023/03/22 03:10:46;;;;;;;4.63;4.20;;;8.40;99.90;;;;;;5099926;28;20482;-76
2023/03/22 03:13:14;;;;;;;6.30;4.00;;;8.40;99.90;;;;;;5109204;28;20443;-76
2023/03/22 03:15:44;;;;;;;3.80;3.50;;;8.40;99.90;;;;;;5097052;28;20869;-76
2023/03/22 03:18:34;;;;;;;5.43;4.60;;;8.40;99.90;;;;;;5108465;28;20512;-77
2023/03/22 03:21:08;;;;;;;4.67;4.27;;;8.30;99.90;;;;;;5094133;28;20841;-76
2023/03/22 03:23:48;;;;;;;4.70;4.40;;;8.30;99.90;;;;;;5102513;28;20492;-77
2023/03/22 03:26:24;;;;;;;6.47;4.80;;;8.20;99.90;;;;;;5107459;28;20846;-75
2023/03/22 03:28:57;;;;;;;3.83;3.53;;;8.30;99.90;;;;;;5105509;28;20446;-77
2023/03/22 03:31:32;;;;;;;4.20;3.77;;;8.30;99.90;;;;;;5099559;28;20551;-75
2023/03/22 03:34:08;;;;;;;6.93;5.53;;;8.20;99.90;;;;;;5104670;28;20449;-77
2023/03/22 03:36:39;;;;;;;4.30;4.00;;;8.20;99.90;;;;;;5106245;28;20468;-75
2023/03/22 03:39:10;;;;;;;5.13;4.63;;;8.20;99.90;;;;;;5107026;28;20450;-75
2023/03/22 03:41:40;;;;;;;9.30;4.30;;;8.20;99.90;;;;;;5104909;28;20479;-76
2023/03/22 03:44:07;;;;;;;4.60;4.30;;;8.20;99.90;;;;;;5100529;28;20967;-77
2023/03/22 03:46:34;;;;;;;4.00;3.70;;;8.10;99.90;;;;;;5106122;28;20451;-76
2023/03/22 03:49:04;;;;;;;4.40;4.00;;;8.20;99.90;;;;;;5097029;28;20451;-75
2023/03/22 03:51:33;;;;;;;9.30;5.07;;;8.20;99.90;;;;;;5103041;28;20871;-75
2023/03/22 03:54:00;;;;;;;4.93;4.47;;;8.10;99.90;;;;;;5100905;28;20508;-76
2023/03/22 03:56:27;;;;;;;5.80;4.90;;;8.10;99.90;;;;;;5098939;28;20454;-76
2023/03/22 03:58:55;;;;;;;4.43;4.03;;;8.10;99.90;;;;;;5104945;28;20462;-75
2023/03/22 04:01:22;;;;;;;8.93;4.27;;;8.00;99.90;;;;;;5106343;28;21522;-75
2023/03/22 04:03:54;;;;;;;5.17;4.67;;;8.00;99.90;;;;;;5103452;28;20525;-75
2023/03/22 04:06:21;;;;;;;4.43;4.03;;;7.90;99.90;;;;;;5099511;28;20462;-75
2023/03/22 04:08:52;;;;;;;7.70;4.40;;;7.90;99.90;;;;;;5101618;28;20516;-75
2023/03/22 04:11:19;;;;;;;6.10;5.50;;;7.90;99.90;;;;;;5096170;28;20553;-75
2023/03/22 04:13:46;;;;;;;4.80;4.47;;;7.70;99.90;;;;;;5106847;28;20457;-75
2023/03/22 04:16:14;;;;;;;5.57;5.10;;;7.70;99.90;;;;;;5104203;28;21004;-75
2023/03/22 04:18:41;;;;;;;7.13;5.67;;;7.70;99.90;;;;;;5094720;28;21044;-76
2023/03/22 04:21:10;;;;;;;5.60;5.13;;;7.70;99.90;;;;;;5100909;28;20462;-75
2023/03/22 04:23:38;;;;;;;5.13;4.73;;;7.60;99.90;;;;;;5100745;28;20981;-74
2023/03/22 04:26:05;;;;;;;4.13;3.80;;;7.60;99.90;;;;;;5097363;28;20568;-75
2023/03/22 04:28:33;;;;;;;6.73;5.10;;;7.60;99.90;;;;;;5098266;28;20487;-76
2023/03/22 04:31:02;;;;;;;7.00;6.30;;;7.60;99.90;;;;;;5096866;28;20483;-75
2023/03/22 04:33:38;;;;;;;5.40;4.90;;;7.50;99.90;;;;;;5101901;28;21064;-75
2023/03/22 04:36:09;;;;;;;6.10;5.50;;;7.30;99.90;;;;;;5100381;28;20450;-75
2023/03/22 04:38:38;;;;;;;5.30;4.90;;;7.20;99.90;;;;;;5104668;28;20515;-75
2023/03/22 04:41:06;;;;;;;6.43;5.43;;;7.20;99.90;;;;;;5098936;28;20511;-75
2023/03/22 04:43:33;;;;;;;5.63;4.97;;;7.10;99.90;;;;;;5103222;28;20486;-76
2023/03/22 04:46:02;;;;;;;6.50;5.90;;;7.00;99.90;;;;;;5098743;28;20469;-75
2023/03/22 04:48:30;;;;;;;7.00;6.30;;;7.00;99.90;;;;;;5101183;28;20495;-76
2023/03/22 04:51:02;;;;;;;5.73;5.23;;;7.00;99.90;;;;;;5098798;28;20539;-75
2023/03/22 04:53:29;;;;;;;6.37;5.77;;;7.00;99.90;;;;;;5092017;28;20533;-77
2023/03/22 04:55:56;;;;;;;6.47;5.63;;;7.00;99.90;;;;;;5092561;28;20543;-76
2023/03/22 04:58:24;;;;;;;6.50;5.90;;;7.10;99.90;;;;;;5093812;28;20551;-75
2023/03/22 05:00:55;;;;;;;6.83;5.97;;;7.10;99.90;;;;;;5095469;28;20491;-76
2023/03/22 05:03:22;;;;;;;5.53;5.10;;;7.00;99.90;;;;;;5093992;28;20455;-75
2023/03/22 05:05:52;;;;;;;6.67;6.07;;;7.00;99.90;;;;;;5090378;28;20454;-76
2023/03/22 05:08:20;;;;;;;7.87;5.77;;;7.00;99.90;;;;;;5094693;28;20462;-75
2023/03/22 05:10:47;;;;;;;5.73;5.20;;;7.10;99.90;;;;;;5101084;28;20494;-76
2023/03/22 05:13:14;;;;;;;7.50;6.80;;;7.00;99.90;;;;;;5098929;28;20462;-75
2023/03/22 05:15:41;;;;;;;7.80;7.03;;;6.90;99.90;;;;;;5094058;28;21164;-75
2023/03/22 05:18:09;;;;;;;7.33;5.70;;;6.90;99.90;;;;;;5105916;28;20524;-76
2023/03/22 05:20:36;;;;;;;7.73;6.47;;;6.90;99.90;;;;;;5102263;28;20478;-75
2023/03/22 05:23:04;;;;;;;8.33;7.53;;;6.90;99.90;;;;;;5104768;28;20566;-77
2023/03/22 05:25:31;;;;;;;8.27;7.47;;;6.90;99.90;;;;;;5106561;28;20465;-77
2023/03/22 05:28:00;;;;;;;10.63;9.03;;;6.90;99.90;;;;;;5103181;28;20471;-76
2023/03/22 05:30:28;;;;;;;11.37;10.20;;;6.70;99.90;;;;;;5106222;28;20490;-76
2023/03/22 05:32:59;;;;;;;9.30;8.40;;;6.60;99.90;;;;;;5100234;28;20446;-77
2023/03/22 05:35:26;;;;;;;9.23;8.40;;;6.70;99.90;;;;;;5095691;28;20979;-75
2023/03/22 05:37:53;;;;;;;6.63;6.00;;;6.60;99.90;;;;;;5097897;28;21049;-75
2023/03/22 05:40:21;;;;;;;7.97;7.27;;;6.60;99.90;;;;;;5093977;28;20466;-75
2023/03/22 05:42:49;;;;;;;8.87;7.97;;;6.60;99.90;;;;;;5103608;28;20534;-75
2023/03/22 05:45:16;;;;;;;9.53;7.13;;;6.50;99.90;;;;;;5099903;28;20461;-75
2023/03/22 05:47:43;;;;;;;7.20;6.57;;;6.60;99.90;;;;;;5103169;28;20505;-76
2023/03/22 05:50:12;;;;;;;8.53;6.97;;;6.60;99.90;;;;;;5101589;28;21189;-75
2023/03/22 05:52:41;;;;;;;7.00;6.40;;;6.60;99.90;;;;;;5093662;28;20455;-76
2023/03/22 05:55:09;;;;;;;7.90;7.17;;;6.50;99.90;;;;;;5098044;28;21141;-75
2023/03/22 05:57:37;;;;;;;8.43;7.73;;;6.50;99.90;;;;;;5101628;28;20903;-76
2023/03/22 06:00:09;;;;;;;7.23;6.60;;;6.50;99.90;;;;;;5097249;28;20973;-75
2023/03/22 06:02:36;;;;;;;7.60;6.87;;;6.50;99.90;;;;;;5095798;28;20462;-75
2023/03/22 06:05:03;;;;;;;6.93;6.33;;;6.60;99.90;;;;;;5105382;28;20543;-75
2023/03/22 06:07:29;;;;;;;6.87;6.10;;;6.50;99.90;;;;;;5096333;28;20879;-75
2023/03/22 06:09:56;;;;;;;6.83;5.20;;;6.50;99.90;;;;;;5100040;28;20950;-75
2023/03/22 06:12:24;;;;;;;7.30;6.63;;;6.50;99.90;;;;;;5092802;28;20466;-75
2023/03/22 06:14:53;;;;;;;8.50;5.80;;;6.70;99.90;;;;;;5094170;28;20777;-74
2023/03/22 06:17:20;;;;;;;9.67;6.90;;;6.80;99.90;;;;;;5104535;28;20519;-74
2023/03/22 06:19:47;;;;;;;9.67;7.30;;;6.90;99.90;;;;;;5097744;28;20512;-74
2023/03/22 06:22:14;;;;;;;13.00;7.40;;;7.10;99.90;;;;;;5098234;28;20529;-75
2023/03/22 06:24:41;;;;;;;8.20;7.60;;;7.30;99.90;;;;;;5098620;28;20517;-74
2023/03/22 06:27:09;;;;;;;6.30;5.70;;;7.60;99.90;;;;;;5098141;28;21414;-74
2023/03/22 06:29:36;;;;;;;12.13;7.93;;;7.90;99.90;;;;;;5102215;28;20516;-75
2023/03/22 06:32:05;;;;;;;13.83;7.47;;;8.10;99.90;;;;;;5100211;28;20930;-74
2023/03/22 06:34:32;;;;;;;7.07;5.50;;;8.40;99.90;;;;;;5103826;28;20506;-75
2023/03/22 06:36:59;;;;;;;5.03;4.63;;;8.40;99.90;;;;;;5103581;28;21149;-75
2023/03/22 06:39:27;;;;;;;5.27;4.77;;;8.50;99.90;;;;;;5108075;28;20456;-80
2023/03/22 06:41:54;;;;;;;6.37;5.27;;;8.70;99.90;;;;;;5102845;28;20550;-79
2023/03/22 06:44:21;;;;;;;4.40;4.10;;;8.90;99.90;;;;;;5104723;28;20878;-80
2023/03/22 06:46:48;;;;;;;3.70;3.50;;;9.00;99.90;;;;;;5095756;28;20452;-80
2023/03/22 06:49:18;;;;;;;4.30;3.67;;;9.10;99.90;;;;;;5098046;28;20459;-80
2023/03/22 06:51:45;;;;;;;4.63;4.23;;;9.50;99.90;;;;;;5106953;28;20572;-79
2023/03/22 06:54:13;;;;;;;3.83;3.63;;;9.50;99.90;;;;;;5095791;28;21152;-79
2023/03/22 06:56:40;;;;;;;5.23;4.63;;;9.70;99.90;;;;;;5099913;28;20485;-85
2023/03/22 06:59:07;;;;;;;5.70;5.23;;;9.80;99.90;;;;;;5104999;28;20447;-74
2023/03/22 07:01:34;;;;;;;4.13;3.80;;;10.00;99.90;;;;;;5104974;28;20470;-75
2023/03/22 07:04:01;;;;;;;5.00;4.70;;;9.90;99.90;;;;;;5106227;28;20876;-74
2023/03/22 07:06:31;;;;;;;5.87;5.37;;;10.10;99.90;;;;;;5106233;28;20512;-73
2023/03/22 07:08:58;;;;;;;5.80;5.13;;;10.20;99.90;;;;;;5101726;28;20486;-74
2023/03/22 07:11:25;;;;;;;4.60;4.20;;;10.20;99.90;;;;;;5106512;28;20486;-75
2023/03/22 07:13:53;;;;;;;5.93;5.47;;;10.20;99.90;;;;;;5100800;28;20985;-74
2023/03/22 07:16:20;;;;;;;6.40;5.90;;;10.30;99.90;;;;;;5095356;28;20995;-73
2023/03/22 07:18:48;;;;;;;7.90;7.37;;;10.30;99.90;;;;;;5101791;28;20458;-79
2023/03/22 07:21:15;;;;;;;6.33;5.83;;;10.40;99.90;;;;;;5097529;28;20475;-78
2023/03/22 07:23:44;;;;;;;6.07;5.57;;;10.70;99.90;;;;;;5105606;28;20527;-79
2023/03/22 07:26:12;;;;;;;6.13;4.33;;;10.70;99.90;;;;;;5106697;28;20484;-74
2023/03/22 07:28:40;;;;;;;3.23;3.03;;;10.80;99.90;;;;;;5105177;28;20462;-78
2023/03/22 07:31:10;;;;;;;7.00;4.70;;;11.00;99.90;;;;;;5110601;27;20479;-79
2023/03/22 07:33:37;;;;;;;5.07;4.57;;;11.00;99.90;;;;;;5099720;28;20458;-74
2023/03/22 07:36:04;;;;;;;4.30;4.00;;;11.40;99.90;;;;;;5108381;28;20439;-74
2023/03/22 07:38:31;;;;;;;3.97;3.67;;;11.30;99.90;;;;;;5107582;28;20515;-73
2023/03/22 07:40:59;;;;;;;4.83;4.40;;;11.60;99.90;;;;;;5107550;28;20459;-76
2023/03/22 07:43:26;;;;;;;4.20;3.90;;;11.50;99.90;;;;;;5105479;28;20527;-78
2023/03/22 07:45:53;;;;;;;3.60;3.40;;;11.30;99.90;;;;;;5103670;28;20637;-76
2023/03/22 07:48:21;;;;;;;5.80;4.63;;;11.40;99.90;;;;;;5107410;28;20443;-75
2023/03/22 07:50:49;;;;;;;4.10;3.80;;;11.40;99.90;;;;;;5102192;28;20481;-83
2023/03/22 07:53:15;;;;;;;6.47;5.23;;;11.40;99.90;;;;;;5104802;28;20458;-82
2023/03/22 07:55:42;;;;;;;5.00;4.60;;;11.60;99.90;;;;;;5097876;28;20539;-74
2023/03/22 07:58:11;;;;;;;3.97;3.60;;;11.70;99.90;;;;;;5099640;28;20459;-82
2023/03/22 08:00:38;;;;;;;4.17;3.87;;;11.90;99.90;;;;;;5108503;28;20447;-80
2023/03/22 08:03:05;;;;;;;4.00;3.70;;;12.00;99.90;;;;;;5098399;28;20471;-78
2023/03/22 08:05:32;;;;;;;4.37;2.63;;;12.00;99.90;;;;;;5098318;28;20534;-79
2023/03/22 08:07:59;;;;;;;3.20;2.90;;;12.10;99.90;;;;;;5105848;28;20446;-77
2023/03/22 08:10:26;;;;;;;3.57;3.13;;;12.10;99.90;;;;;;5097689;28;20462;-78
2023/03/22 08:12:53;;;;;;;3.30;2.50;;;12.20;99.90;;;;;;5099078;28;20458;-77
2023/03/22 08:15:21;;;;;;;2.80;2.30;;;12.40;99.90;;;;;;5098983;28;20447;-77
2023/03/22 08:17:49;;;;;;;3.07;2.77;;;12.70;99.90;;;;;;5098092;28;20463;-77
2023/03/22 08:20:17;;;;;;;3.53;3.17;;;12.90;99.90;;;;;;5100590;28;20467;-78
2023/03/22 08:22:44;;;;;;;3.40;3.20;;;13.10;99.90;;;;;;5098544;28;20463;-77
2023/03/22 08:25:11;;;;;;;4.83;3.43;;;13.00;99.90;;;;;;5096422;27;21252;-77
2023/03/22 08:27:38;;;;;;;3.70;3.40;;;13.00;99.90;;;;;;5102332;28;20490;-77
2023/03/22 08:30:06;;;;;;;3.77;3.57;;;13.10;99.90;;;;;;5095638;28;20463;-78
2023/03/22 08:32:35;;;;;;;3.97;3.67;;;13.10;99.90;;;;;;5103076;28;20486;-77
2023/03/22 08:35:02;;;;;;;3.67;3.47;;;13.20;99.90;;;;;;5103903;28;21022;-77
2023/03/22 08:37:29;;;;;;;4.33;3.93;;;13.50;99.90;;;;;;5102621;28;20463;-77
2023/03/22 08:39:56;;;;;;;3.60;3.13;;;13.60;99.90;;;;;;5106200;28;20439;-79
2023/03/22 08:42:23;;;;;;;3.30;3.10;;;13.60;99.90;;;;;;5100781;28;20458;-78
2023/03/22 08:44:51;;;;;;;3.43;3.13;;;13.70;99.90;;;;;;5107630;28;20489;-79
2023/03/22 08:47:18;;;;;;;2.57;2.37;;;14.00;99.90;;;;;;5103515;28;20454;-77
2023/03/22 08:49:46;;;;;;;2.27;2.13;;;14.40;99.90;;;;;;5104477;28;20470;-78
2023/03/22 08:52:13;;;;;;;2.90;2.37;;;14.50;99.90;;;;;;5102783;28;21066;-77
2023/03/22 08:54:40;;;;;;;4.93;2.10;;;14.70;99.90;;;;;;5097821;28;20459;-77
2023/03/22 08:57:09;;;;;;;1.47;1.37;;;14.90;99.90;;;;;;5096757;28;20496;-77
2023/03/22 08:59:36;;;;;;;1.73;1.63;;;15.10;99.90;;;;;;5103003;28;20817;-79
2023/03/22 09:02:03;;;;;;;3.40;2.70;;;15.30;99.90;;;;;;5099044;28;20995;-77
2023/03/22 09:04:30;;;;;;;3.03;2.23;;;15.70;99.90;;;;;;5103641;28;21050;-78
2023/03/22 09:06:58;;;;;;;2.67;1.67;;;16.00;99.90;;;;;;5102580;28;20539;-77
2023/03/22 09:09:25;;;;;;;2.17;1.90;;;16.30;99.90;;;;;;5102934;28;20507;-77
2023/03/22 09:11:52;;;;;;;3.93;2.80;;;16.40;98.70;;;;;;5105933;28;20844;-77
2023/03/22 09:14:19;;;;;;;2.50;2.30;;;16.20;99.30;;;;;;5106782;28;20442;-76
2023/03/22 09:16:46;;;;;;;3.43;2.70;;;16.10;97.80;;;;;;5107493;27;20500;-80
2023/03/22 09:19:13;;;;;;;2.93;2.40;;;16.30;98.50;;;;;;5103256;28;20474;-78
2023/03/22 09:21:40;;;;;;;2.80;2.60;;;16.40;98.10;;;;;;5104671;28;20446;-76
2023/03/22 09:24:09;;;;;;;4.20;2.40;;;16.10;98.90;;;;;;5101370;28;20876;-78
2023/03/22 09:26:36;;;;;;;2.70;2.50;;;16.30;99.20;;;;;;5100520;28;20485;-77
2023/03/22 09:29:03;;;;;;;2.87;2.67;;;16.40;97.20;;;;;;5099339;28;20877;-77
2023/03/22 09:31:30;;;;;;;3.03;2.80;;;16.20;97.90;;;;;;5103791;28;20489;-80
2023/03/22 09:33:57;;;;;;;3.27;2.97;;;16.30;98.40;;;;;;5094131;28;20452;-79
2023/03/22 09:36:24;;;;;;;3.97;2.60;;;16.20;97.30;;;;;;5104849;28;20439;-77
2023/03/22 09:38:51;;;;;;;3.90;3.60;;;16.40;95.40;;;;;;5101005;28;20542;-86
2023/03/22 09:41:23;;;;;;;3.20;2.90;;;16.30;93.20;;;;;;5102124;28;20454;-76
2023/03/22 09:43:54;;;;;;;3.93;3.20;;;16.20;92.80;;;;;;5099473;28;20455;-78
2023/03/22 09:46:31;;;;;;;4.57;4.03;;;16.10;93.80;;;;;;5102502;28;20819;-76
2023/03/22 09:49:01;;;;;;;4.10;3.70;;;15.80;94.10;;;;;;5094797;28;20446;-77
2023/03/22 09:51:37;;;;;;;4.10;3.80;;;16.00;95.70;;;;;;5099352;28;20924;-76
2023/03/22 09:54:09;;;;;;;3.90;3.13;;;15.80;94.00;;;;;;5102662;28;20534;-83
2023/03/22 09:56:38;;;;;;;4.37;3.97;;;16.00;95.50;;;;;;5103761;28;20496;-77
2023/03/22 09:59:13;;;;;;;5.93;5.43;;;16.30;94.70;;;;;;5102355;28;20954;-78
2023/03/22 10:01:45;;;;;;;8.00;5.20;;;16.30;94.60;;;;;;5100434;28;20744;-77
2023/03/22 10:04:36;;;;;;;7.03;6.43;;;16.30;93.60;;;;;;5096312;28;20463;-79
2023/03/22 10:07:10;;;;;;;4.57;4.20;;;16.30;92.20;;;;;;5095805;28;20444;-77
2023/03/22 10:09:44;;;;;;;5.70;5.20;;;16.30;91.40;;;;;;5093433;28;20451;-77
2023/03/22 10:12:19;;;;;;;4.47;4.17;;;16.20;94.10;;;;;;5107287;28;20521;-77
2023/03/22 10:14:50;;;;;;;7.63;6.83;;;16.20;94.50;;;;;;5104242;28;20496;-76
2023/03/22 10:17:21;;;;;;;5.37;4.97;;;16.20;94.80;;;;;;5099556;28;20467;-79
2023/03/22 10:19:54;;;;;;;5.63;4.70;;;16.30;94.40;;;;;;5109165;28;20516;-77
2023/03/22 10:22:24;;;;;;;4.93;4.53;;;16.30;95.40;;;;;;5104835;28;20808;-79
2023/03/22 10:24:52;;;;;;;5.63;5.23;;;16.40;95.30;;;;;;5105640;28;20513;-76
2023/03/22 10:27:23;;;;;;;7.10;6.50;;;16.40;92.90;;;;;;5105468;28;20527;-77
2023/03/22 10:29:54;;;;;;;6.57;5.93;;;16.40;92.50;;;;;;5102633;28;20500;-77
2023/03/22 10:32:28;;;;;;;5.53;4.93;;;16.60;92.50;;;;;;5109787;28;20535;-77
2023/03/22 10:34:55;;;;;;;6.00;5.50;;;16.50;92.10;;;;;;5099892;28;20601;-79
2023/03/22 10:37:26;;;;;;;6.00;5.40;;;16.50;92.90;;;;;;5110692;28;20488;-77
2023/03/22 10:39:55;;;;;;;5.30;4.90;;;16.50;92.40;;;;;;5104300;28;20457;-76
2023/03/22 10:42:26;;;;;;;7.27;5.07;;;16.40;93.40;;;;;;5100927;28;20442;-78
2023/03/22 10:44:57;;;;;;;5.67;5.27;;;16.40;94.30;;;;;;5106445;28;20455;-75
2023/03/22 10:47:31;;;;;;;6.23;5.73;;;16.50;92.00;;;;;;5104931;28;20516;-79
2023/03/22 10:50:02;;;;;;;5.07;4.67;;;16.40;91.30;;;;;;5107963;28;20512;-77
2023/03/22 10:52:41;;;;;;;7.67;5.53;;;16.70;92.40;;;;;;5108545;28;20481;-76
2023/03/22 10:55:11;;;;;;;6.90;6.23;;;16.80;89.10;;;;;;5103019;28;20847;-79
2023/03/22 10:57:41;;;;;;;5.80;5.20;;;16.80;87.50;;;;;;5105353;28;20459;-77
2023/03/22 11:00:11;;;;;;;5.33;4.83;;;16.90;87.90;;;;;;5102882;28;20447;-77
2023/03/22 11:02:47;;;;;;;4.83;4.20;;;17.00;91.60;;;;;;5109404;28;20443;-77
2023/03/22 11:05:22;;;;;;;6.23;4.83;;;17.10;90.00;;;;;;5104104;28;20452;-76
2023/03/22 11:07:50;;;;;;;4.50;4.10;;;17.30;86.00;;;;;;5101782;28;20543;-77
2023/03/22 11:10:27;;;;;;;4.60;4.20;;;17.20;83.30;;;;;;5103880;28;20511;-77
2023/03/22 11:13:10;;;;;;;6.63;4.90;;;17.40;82.90;;;;;;5104101;28;20573;-78
2023/03/22 11:15:40;;;;;;;5.20;3.87;;;17.60;83.20;;;;;;5099926;28;20501;-76
2023/03/22 11:18:13;;;;;;;4.73;4.23;;;17.70;87.70;;;;;;5108784;28;20458;-76
2023/03/22 11:20:42;;;;;;;5.93;5.43;;;17.60;79.10;;;;;;5103124;28;20487;-77
2023/03/22 11:23:13;;;;;;;3.83;3.53;;;17.60;80.60;;;;;;5099346;28;20463;-77
2023/03/22 11:25:47;;;;;;;5.07;4.67;;;17.80;86.10;;;;;;5107072;28;20466;-78
2023/03/22 11:28:19;;;;;;;5.63;5.13;;;17.90;83.10;;;;;;5109462;28;20526;-77
2023/03/22 11:31:02;;;;;;;6.13;4.77;;;17.80;80.40;;;;;;5108838;28;20984;-76
2023/03/22 11:33:30;;;;;;;4.50;4.10;;;17.90;81.70;;;;;;5100023;28;20489;-79
2023/03/22 11:35:58;;;;;;;6.30;5.50;;;18.10;81.50;;;;;;5098537;28;20451;-77
2023/03/22 11:38:29;;;;;;;5.40;5.00;;;18.00;79.80;;;;;;5107921;28;21340;-77
2023/03/22 11:40:59;;;;;;;5.77;4.77;;;17.80;80.00;;;;;;5107075;28;20506;-77
2023/03/22 11:43:34;;;;;;;6.67;6.07;;;17.80;80.90;;;;;;5096997;28;20522;-77
2023/03/22 11:46:02;;;;;;;5.37;4.87;;;17.70;78.70;;;;;;5104133;28;20461;-77
2023/03/22 11:48:31;;;;;;;5.43;4.93;;;17.70;84.30;;;;;;5102895;28;20842;-77
2023/03/22 11:51:06;;;;;;;5.67;4.47;;;17.80;84.40;;;;;;5104272;28;20456;-78
2023/03/22 11:53:37;;;;;;;5.20;4.30;;;17.80;77.70;;;;;;5105935;28;20539;-77
2023/03/22 11:56:06;;;;;;;3.83;3.63;;;17.90;80.80;;;;;;5106952;28;20999;-77
2023/03/22 11:58:58;;;;;;;4.60;4.20;;;18.00;75.10;;;;;;5103572;28;20450;-77
2023/03/22 12:01:34;;;;;;;4.43;4.13;;;18.20;83.20;;;;;;5097989;28;20463;-77
2023/03/22 12:04:03;;;;;;;3.70;3.40;;;18.30;75.10;;;;;;5108606;28;20508;-78
2023/03/22 12:06:34;;;;;;;4.93;3.40;;;18.30;70.90;;;;;;5106675;28;20456;-77
2023/03/22 12:09:06;;;;;;;4.60;4.20;;;18.40;75.90;;;;;;5107189;28;20521;-77
2023/03/22 12:11:37;;;;;;;3.90;2.80;;;18.20;73.40;;;;;;5106778;28;20461;-77
2023/03/22 12:14:14;;;;;;;4.10;3.70;;;18.00;72.90;;;;;;5108176;28;20540;-77
2023/03/22 12:16:46;;;;;;;5.93;3.27;;;18.00;72.00;;;;;;5098594;28;20461;-77
2023/03/22 12:19:22;;;;;;;4.90;4.40;;;18.20;73.30;;;;;;5102166;28;20470;-78
2023/03/22 12:21:49;;;;;;;3.77;3.47;;;18.20;71.10;;;;;;5094416;28;20449;-77
2023/03/22 12:24:26;;;;;;;5.70;2.93;;;18.40;69.40;;;;;;5102063;28;20458;-77
2023/03/22 12:26:57;;;;;;;3.97;3.67;;;18.60;71.50;;;;;;5097928;28;20480;-77
2023/03/22 12:29:28;;;;;;;4.30;3.70;;;18.40;71.50;;;;;;5105384;28;20438;-76
2023/03/22 12:32:02;;;;;;;3.27;2.97;;;18.30;67.50;;;;;;5106830;28;20459;-76
2023/03/22 12:34:36;;;;;;;3.30;3.10;;;18.50;71.50;;;;;;5106342;28;20451;-78
2023/03/22 12:37:07;;;;;;;4.20;3.30;;;18.20;70.20;;;;;;5106652;28;20452;-77
2023/03/22 12:39:38;;;;;;;4.03;3.73;;;18.50;69.50;;;;;;5105985;28;20473;-77
2023/03/22 12:42:13;;;;;;;3.63;2.37;;;18.90;69.20;;;;;;5091440;28;20444;-77
2023/03/22 12:44:44;;;;;;;4.63;3.00;;;19.20;68.10;;;;;;5104870;28;20450;-77
2023/03/22 12:47:18;;;;;;;4.33;3.87;;;19.40;64.80;;;;;;5100141;28;20935;-77
2023/03/22 12:49:53;;;;;;;3.53;3.23;;;19.30;64.70;;;;;;5104469;28;20448;-77
2023/03/22 12:52:26;;;;;;;5.77;3.00;;;19.60;65.00;;;;;;5095540;28;20510;-77
2023/03/22 12:54:54;;;;;;;3.10;2.80;;;19.60;67.30;;;;;;5106598;28;20495;-78
2023/03/22 12:57:21;;;;;;;3.30;3.00;;;19.20;62.90;;;;;;5105434;28;20461;-76
2023/03/22 12:59:53;;;;;;;3.67;3.37;;;19.40;67.60;;;;;;5102539;28;20443;-77
2023/03/22 13:02:26;;;;;;;5.83;3.73;;;19.50;65.10;;;;;;5107911;28;20507;-77
2023/03/22 13:04:55;;;;;;;4.20;3.80;;;19.60;64.20;;;;;;5098959;28;20861;-78
2023/03/22 13:07:39;;;;;;;5.13;4.20;;;19.70;62.80;;;;;;5101932;28;20462;-77
2023/03/22 13:10:44;;;;;;;5.93;4.37;;;19.70;61.20;;;;;;5099993;28;20467;-77